Terminal Aerodrome Forecast
Issued by NWS

Home | Current Version | Previous Version | Text Only | Print | Product List | Glossary On
Versions: 1 2 3 4 5 6 7 8 9 10 11 12 13 14 15 16 17
000
FTAK31 PAFA 240722 AAA
TAFASC
TAF AMD
PASC 240722Z 2407/2506 23013KT 3SM -SN BR SCT025 BKN060
      TEMPO 2407/2410 1 1/2SM -SN BR BKN025 OVC060
     FM241000 23010KT 4SM -SN BR BKN035 OVC060
     FM241200 25012KT 5SM BR SCT035 OVC060=

USA.gov is the U.S. government's official web portal to all federal, state and local government web resources and services.